createdAt,value
2018-05-10T00:00:44.587Z,18.31
2018-05-10T00:01:44.620Z,18.29
2018-05-10T00:02:44.554Z,18.25
2018-05-10T00:03:44.632Z,18.28
2018-05-10T00:04:44.513Z,18.25
2018-05-10T00:05:44.544Z,18.21
2018-05-10T00:06:44.478Z,18.19
2018-05-10T00:07:44.553Z,18.18
2018-05-10T00:08:44.426Z,18.18
2018-05-10T00:09:44.461Z,18.13
2018-05-10T00:10:44.391Z,18.17
2018-05-10T00:11:44.473Z,18.15
2018-05-10T00:12:44.352Z,18.19
2018-05-10T00:13:44.386Z,18.12
2018-05-10T00:14:44.314Z,18.07
2018-05-10T00:15:44.393Z,18.09
2018-05-10T00:16:44.274Z,18.09
2018-05-10T00:17:44.307Z,18.09
2018-05-10T00:18:44.238Z,18.09
2018-05-10T00:19:44.338Z,18.10
2018-05-10T00:20:44.192Z,18.03
2018-05-10T00:21:44.232Z,18.02
2018-05-10T00:22:44.168Z,18.04
2018-05-10T00:23:44.242Z,17.92
2018-05-10T00:24:44.125Z,17.92
2018-05-10T00:25:44.151Z,17.97
2018-05-10T00:26:44.075Z,17.99
2018-05-10T00:27:44.162Z,17.99
2018-05-10T00:28:44.035Z,17.92
2018-05-10T00:29:44.076Z,17.94
2018-05-10T00:30:43.996Z,17.95
2018-05-10T00:31:44.085Z,17.92
2018-05-10T00:32:43.956Z,17.87
2018-05-10T00:33:43.994Z,17.85
2018-05-10T00:34:43.920Z,17.82
2018-05-10T00:35:44.005Z,17.87
2018-05-10T00:36:43.879Z,17.87
2018-05-10T00:37:43.916Z,17.84
2018-05-10T00:38:43.835Z,17.76
2018-05-10T00:39:43.928Z,17.76
2018-05-10T00:40:43.796Z,17.76
2018-05-10T00:41:43.841Z,17.82
2018-05-10T00:42:43.765Z,17.85
2018-05-10T00:43:43.752Z,17.78
2018-05-10T00:44:43.715Z,17.73
2018-05-10T00:45:43.757Z,17.70
2018-05-10T00:46:43.675Z,17.74
2018-05-10T00:47:43.671Z,17.67
2018-05-10T00:48:43.635Z,17.70
2018-05-10T00:49:43.681Z,17.70
2018-05-10T00:50:43.595Z,17.71
2018-05-10T00:51:43.592Z,17.71
2018-05-10T00:52:43.553Z,17.67
2018-05-10T00:53:43.606Z,17.63
2018-05-10T00:54:43.512Z,17.67
2018-05-10T00:55:43.516Z,17.55
2018-05-10T00:56:43.482Z,17.62
2018-05-10T00:57:43.530Z,17.51
2018-05-10T00:58:43.433Z,17.59
2018-05-10T00:59:43.437Z,17.54
2018-05-10T01:00:43.397Z,17.47
2018-05-10T01:01:43.455Z,17.51
2018-05-10T01:02:43.351Z,17.47
2018-05-10T01:03:43.362Z,17.43
2018-05-10T01:04:43.351Z,17.50
2018-05-10T01:05:43.380Z,17.47
2018-05-10T01:06:43.279Z,17.44
2018-05-10T01:07:43.288Z,17.44
2018-05-10T01:08:43.235Z,17.48
2018-05-10T01:09:43.300Z,17.33
2018-05-10T01:10:43.191Z,17.35
2018-05-10T01:11:43.208Z,17.35
2018-05-10T01:12:43.148Z,17.41
2018-05-10T01:13:45.168Z,17.32
2018-05-10T01:14:43.106Z,17.29
2018-05-10T01:15:43.128Z,17.32
2018-05-10T01:16:43.071Z,17.32
2018-05-10T01:17:43.142Z,17.32
2018-05-10T01:18:43.026Z,17.28
2018-05-10T01:19:43.065Z,17.23
2018-05-10T01:20:42.984Z,17.26
2018-05-10T01:21:43.066Z,17.26
2018-05-10T01:22:42.947Z,17.33
2018-05-10T01:23:42.990Z,17.25
2018-05-10T01:24:42.901Z,17.29
2018-05-10T01:25:42.992Z,17.28
2018-05-10T01:26:42.861Z,17.26
2018-05-10T01:27:42.901Z,17.26
2018-05-10T01:28:42.815Z,17.30
2018-05-10T01:29:42.912Z,17.28
2018-05-10T01:30:42.787Z,17.06
2018-05-10T01:31:42.825Z,17.08
2018-05-10T01:32:42.736Z,17.11
2018-05-10T01:33:42.739Z,17.20
2018-05-10T01:36:22.396Z,17.08
2018-05-10T01:37:14.334Z,17.08
2018-05-10T01:39:07.260Z,17.03
2018-05-10T01:40:07.172Z,17.00
2018-05-10T01:42:00.053Z,17.08
2018-05-10T01:43:00.026Z,16.99
2018-05-10T01:44:53.985Z,17.03
2018-05-10T01:45:52.884Z,17.00
2018-05-10T01:47:45.814Z,16.85
2018-05-10T01:48:45.724Z,16.78
2018-05-10T01:50:39.689Z,16.74
2018-05-10T01:51:38.575Z,16.63
2018-05-10T01:53:32.542Z,16.62
2018-05-10T01:54:31.429Z,16.58
2018-05-10T01:56:24.362Z,16.49
2018-05-10T01:57:24.280Z,16.56
2018-05-10T01:59:18.241Z,16.50
2018-05-10T02:00:17.135Z,16.42
2018-05-10T02:02:10.067Z,16.53
2018-05-10T02:03:09.980Z,16.50
2018-05-10T02:05:02.914Z,16.50
2018-05-10T02:06:02.829Z,16.55
2018-05-10T02:07:56.791Z,16.50
2018-05-10T02:08:55.685Z,16.52
2018-05-10T02:10:48.620Z,16.40
2018-05-10T02:11:48.541Z,16.48
2018-05-10T02:13:42.495Z,16.50
2018-05-10T02:14:41.443Z,16.41
2018-05-10T02:16:34.325Z,16.42
2018-05-10T02:17:34.235Z,16.38
2018-05-10T02:19:27.179Z,16.25
2018-05-10T02:20:27.088Z,16.23
2018-05-10T02:22:20.029Z,16.09
2018-05-10T02:23:19.935Z,16.16
2018-05-10T02:25:13.898Z,16.23
2018-05-10T02:26:12.787Z,16.16
2018-05-10T02:28:05.721Z,16.11
2018-05-10T02:29:05.645Z,15.96
2018-05-10T02:30:58.581Z,15.89
2018-05-10T02:31:58.500Z,15.96
2018-05-10T02:33:51.447Z,15.88
2018-05-10T02:34:51.338Z,15.93
2018-05-10T02:36:44.301Z,15.92
2018-05-10T02:37:44.190Z,15.93
2018-05-10T02:39:37.128Z,15.94
2018-05-10T02:40:37.039Z,15.84
2018-05-10T02:42:29.979Z,15.76
2018-05-10T02:43:29.892Z,15.82
2018-05-10T02:45:22.830Z,15.76
2018-05-10T02:46:22.742Z,15.74
2018-05-10T02:48:16.708Z,15.84
2018-05-10T02:49:15.593Z,15.82
2018-05-10T02:51:08.533Z,15.76
2018-05-10T02:52:08.449Z,15.74
2018-05-10T02:54:01.387Z,15.64
2018-05-10T02:55:01.297Z,15.63
2018-05-10T02:56:54.234Z,15.68
2018-05-10T02:57:54.148Z,15.64
2018-05-10T02:59:47.081Z,15.64
2018-05-10T03:00:47.001Z,15.60
2018-05-10T03:02:39.872Z,15.57
2018-05-10T03:03:39.908Z,15.48
2018-05-10T03:05:32.783Z,15.48
2018-05-10T03:06:32.695Z,15.45
2018-05-10T03:08:25.676Z,15.45
2018-05-10T03:09:25.546Z,15.49
2018-05-10T03:11:18.489Z,15.52
2018-05-10T03:12:18.398Z,15.48
2018-05-10T03:14:11.341Z,15.54
2018-05-10T03:15:11.249Z,15.52
2018-05-10T03:17:04.197Z,15.52
2018-05-10T03:18:04.101Z,15.60
2018-05-10T03:19:57.034Z,15.46
2018-05-10T03:20:56.954Z,15.42
2018-05-10T03:22:49.890Z,15.43
2018-05-10T03:23:49.794Z,15.48
2018-05-10T03:25:42.817Z,15.42
2018-05-10T03:26:42.651Z,15.45
2018-05-10T03:28:35.590Z,15.27
2018-05-10T03:29:35.503Z,15.31
2018-05-10T03:31:28.451Z,15.39
2018-05-10T03:32:28.354Z,15.35
2018-05-10T03:34:21.292Z,15.26
2018-05-10T03:35:21.208Z,15.26
2018-05-10T03:37:14.092Z,15.23
2018-05-10T03:38:14.054Z,15.17
2018-05-10T03:40:06.995Z,15.11
2018-05-10T03:41:06.906Z,15.13
2018-05-10T03:42:59.794Z,15.15
2018-05-10T03:43:59.826Z,15.08
2018-05-10T03:45:52.697Z,15.03
2018-05-10T03:46:52.606Z,15.08
2018-05-10T03:48:45.548Z,14.94
2018-05-10T03:49:45.454Z,14.93
2018-05-10T03:51:38.397Z,15.05
2018-05-10T03:52:38.307Z,14.98
2018-05-10T03:54:31.250Z,15.06
2018-05-10T03:55:31.158Z,15.08
2018-05-10T03:57:24.091Z,15.01
2018-05-10T03:58:24.008Z,14.91
2018-05-10T04:00:16.952Z,14.93
2018-05-10T04:01:16.861Z,14.88
2018-05-10T04:03:09.746Z,14.90
2018-05-10T04:04:09.711Z,14.86
2018-05-10T04:06:02.722Z,14.78
2018-05-10T04:07:02.565Z,14.94
2018-05-10T04:08:55.498Z,14.84
2018-05-10T04:09:55.416Z,14.84
2018-05-10T04:11:48.350Z,14.86
2018-05-10T04:12:48.256Z,14.80
2018-05-10T04:14:41.201Z,14.68
2018-05-10T04:15:41.111Z,14.61
2018-05-10T04:17:35.080Z,14.53
2018-05-10T04:18:33.960Z,14.61
2018-05-10T04:20:26.900Z,14.54
2018-05-10T04:21:26.816Z,14.64
2018-05-10T04:23:19.756Z,14.64
2018-05-10T04:24:19.664Z,14.61
2018-05-10T04:26:12.602Z,14.65
2018-05-10T04:27:12.517Z,14.60
2018-05-10T04:29:05.402Z,14.60
2018-05-10T04:30:05.362Z,14.67
2018-05-10T04:31:58.307Z,14.67
2018-05-10T04:32:58.217Z,14.71
2018-05-10T04:33:58.295Z,14.74
2018-05-10T04:34:58.176Z,14.68
2018-05-10T04:35:58.204Z,14.64
2018-05-10T04:36:58.133Z,14.64
2018-05-10T04:37:58.214Z,14.71
2018-05-10T04:38:58.090Z,14.81
2018-05-10T04:39:58.126Z,14.93
2018-05-10T04:40:58.044Z,14.88
2018-05-10T04:41:58.035Z,14.80
2018-05-10T04:42:58.000Z,14.83
2018-05-10T04:43:58.049Z,14.83
2018-05-10T04:44:57.953Z,14.83
2018-05-10T04:45:57.959Z,14.86
2018-05-10T04:46:57.911Z,14.74
2018-05-10T04:47:57.969Z,14.81
2018-05-10T04:48:57.867Z,14.75
2018-05-10T04:49:57.955Z,14.84
2018-05-10T04:50:57.821Z,14.69
2018-05-10T04:51:57.893Z,14.68
2018-05-10T04:52:57.777Z,14.69
2018-05-10T04:53:57.801Z,14.68
2018-05-10T04:54:57.734Z,14.71
2018-05-10T04:55:57.816Z,14.69
2018-05-10T04:56:57.685Z,14.67
2018-05-10T04:57:57.728Z,14.67
2018-05-10T04:58:57.645Z,14.65
2018-05-10T04:59:57.761Z,14.72
2018-05-10T05:00:57.604Z,14.87
2018-05-10T05:01:57.649Z,14.80
2018-05-10T05:02:57.558Z,14.83
2018-05-10T05:03:57.563Z,14.75
2018-05-10T05:04:57.515Z,14.84
2018-05-10T05:05:58.597Z,14.84
2018-05-10T05:06:57.472Z,14.87
2018-05-10T05:07:57.491Z,14.93
2018-05-10T05:08:57.525Z,14.90
2018-05-10T05:09:57.499Z,14.93
2018-05-10T05:10:57.380Z,14.90
2018-05-10T05:11:57.465Z,14.83
2018-05-10T05:12:57.338Z,14.93
2018-05-10T05:13:57.424Z,15.05
2018-05-10T05:14:57.288Z,15.11
2018-05-10T05:15:57.348Z,15.17
2018-05-10T05:16:57.254Z,15.09
2018-05-10T05:17:57.360Z,15.20
2018-05-10T05:18:57.206Z,15.20
2018-05-10T05:19:57.269Z,15.19
2018-05-10T05:20:57.162Z,15.19
2018-05-10T05:21:57.159Z,15.15
2018-05-10T05:22:57.122Z,15.05
2018-05-10T05:23:57.169Z,15.06
2018-05-10T05:24:57.073Z,15.06
2018-05-10T05:25:57.080Z,15.08
2018-05-10T05:26:57.112Z,15.19
2018-05-10T05:27:57.093Z,15.19
2018-05-10T05:28:56.985Z,15.31
2018-05-10T05:29:57.005Z,15.23
2018-05-10T05:30:56.940Z,15.23
2018-05-10T05:31:57.019Z,15.35
2018-05-10T05:32:56.897Z,15.31
2018-05-10T05:33:56.930Z,15.41
2018-05-10T05:34:56.857Z,15.46
2018-05-10T05:35:56.940Z,15.49
2018-05-10T05:36:56.809Z,15.52
2018-05-10T05:37:56.850Z,15.39
2018-05-10T05:38:56.773Z,15.43
2018-05-10T05:39:56.761Z,15.45
2018-05-10T05:40:56.724Z,15.43
2018-05-10T05:41:56.777Z,15.43
2018-05-10T05:42:56.680Z,15.41
2018-05-10T05:43:56.684Z,15.45
2018-05-10T05:44:56.635Z,15.45
2018-05-10T05:45:56.699Z,15.42
2018-05-10T05:46:56.596Z,15.48
2018-05-10T05:47:56.605Z,15.39
2018-05-10T05:48:56.552Z,15.38
2018-05-10T05:49:56.616Z,15.28
2018-05-10T05:50:56.507Z,15.30
2018-05-10T05:51:56.521Z,15.26
2018-05-10T05:52:56.463Z,15.23
2018-05-10T05:53:56.539Z,15.24
2018-05-10T05:54:56.434Z,15.24
2018-05-10T05:55:56.443Z,15.26
2018-05-10T05:56:56.387Z,15.23
2018-05-10T05:57:56.460Z,15.27
2018-05-10T05:58:56.332Z,15.42
2018-05-10T05:59:56.361Z,15.41
2018-05-10T06:00:56.356Z,15.39
2018-05-10T06:01:56.279Z,15.39
2018-05-10T06:02:56.246Z,15.41
2018-05-10T06:03:56.287Z,15.42
2018-05-10T06:04:56.197Z,15.43
2018-05-10T06:05:56.200Z,15.30
2018-05-10T06:06:56.171Z,15.23
2018-05-10T06:07:56.213Z,15.21
2018-05-10T06:08:56.120Z,15.12
2018-05-10T06:09:56.124Z,15.21
2018-05-10T06:10:56.071Z,15.11
2018-05-10T06:11:56.140Z,15.27
2018-05-10T06:12:56.028Z,15.27
2018-05-10T06:13:56.057Z,15.26
2018-05-10T06:14:55.988Z,15.24
2018-05-10T06:15:56.129Z,15.36
2018-05-10T06:16:55.940Z,15.35
2018-05-10T06:17:55.972Z,15.42
2018-05-10T06:18:55.901Z,15.41
2018-05-10T06:19:55.986Z,15.39
2018-05-10T06:20:55.859Z,15.35
2018-05-10T06:21:55.897Z,15.43
2018-05-10T06:22:55.811Z,15.39
2018-05-10T06:23:55.803Z,15.41
2018-05-10T06:24:55.888Z,15.54
2018-05-10T06:25:55.816Z,15.54
2018-05-10T06:26:55.725Z,15.56
2018-05-10T06:27:55.726Z,15.66
2018-05-10T06:28:55.681Z,15.74
2018-05-10T06:29:55.742Z,15.76
2018-05-10T06:30:55.641Z,15.85
2018-05-10T06:31:55.648Z,15.76
2018-05-10T06:32:55.593Z,15.85
2018-05-10T06:33:55.714Z,15.89
2018-05-10T06:34:55.551Z,15.97
2018-05-10T06:35:55.573Z,15.92
2018-05-10T06:36:55.511Z,15.89
2018-05-10T06:37:55.586Z,15.85
2018-05-10T06:38:55.470Z,15.94
2018-05-10T06:39:55.496Z,15.84
2018-05-10T06:40:55.434Z,15.86
2018-05-10T06:41:57.196Z,15.93
2018-05-10T06:42:55.381Z,15.86
2018-05-10T06:43:55.526Z,15.88
2018-05-10T06:44:55.332Z,16.01
2018-05-10T06:45:55.335Z,16.06
2018-05-10T06:46:55.374Z,16.14
2018-05-10T06:47:55.270Z,16.14
2018-05-10T06:48:55.355Z,16.09
2018-05-10T06:49:55.229Z,16.25
2018-05-10T06:50:55.270Z,16.33
2018-05-10T06:51:55.184Z,16.37
2018-05-10T06:52:55.283Z,16.55
2018-05-10T06:53:55.142Z,16.52
2018-05-10T06:54:55.193Z,16.68
2018-05-10T06:55:55.098Z,16.75
2018-05-10T06:56:55.212Z,16.71
2018-05-10T06:57:55.060Z,16.62
2018-05-10T06:58:55.121Z,16.50
2018-05-10T06:59:55.016Z,16.23
2018-05-10T07:00:55.033Z,16.33
2018-05-10T07:01:55.036Z,16.14
2018-05-10T07:02:54.948Z,16.18
2018-05-10T07:03:55.050Z,16.03
2018-05-10T07:04:54.906Z,15.89
2018-05-10T07:05:54.968Z,15.88
2018-05-10T07:06:54.866Z,15.92
2018-05-10T07:07:54.979Z,15.92
2018-05-10T07:08:54.825Z,15.99
2018-05-10T07:09:55.049Z,16.09
2018-05-10T07:10:54.780Z,16.09
2018-05-10T07:11:54.904Z,16.12
2018-05-10T07:12:54.739Z,16.18
2018-05-10T07:13:54.816Z,16.06
2018-05-10T07:14:54.692Z,16.00
2018-05-10T07:15:54.732Z,16.00
2018-05-10T07:16:54.647Z,16.00
2018-05-10T07:17:54.742Z,16.12
2018-05-10T07:18:54.609Z,16.01
2018-05-10T07:19:54.655Z,15.89
2018-05-10T07:20:54.573Z,15.72
2018-05-10T07:21:54.667Z,15.85
2018-05-10T07:22:54.527Z,15.76
2018-05-10T07:23:54.581Z,15.81
2018-05-10T07:24:54.482Z,15.81
2018-05-10T07:25:54.489Z,15.85
2018-05-10T07:26:54.440Z,15.89
2018-05-10T07:27:54.506Z,15.93
2018-05-10T07:28:54.399Z,15.89
2018-05-10T07:29:54.416Z,15.82
2018-05-10T07:30:54.357Z,15.75
2018-05-10T07:31:54.430Z,15.61
2018-05-10T07:32:54.371Z,15.48
2018-05-10T07:33:54.338Z,15.46
2018-05-10T07:34:54.280Z,15.38
2018-05-10T07:35:54.356Z,15.41
2018-05-10T07:36:54.228Z,15.11
2018-05-10T07:37:54.270Z,15.20
2018-05-10T07:38:54.185Z,15.21
2018-05-10T07:39:54.230Z,15.12
2018-05-10T07:40:54.143Z,15.21
2018-05-10T07:41:54.275Z,15.08
2018-05-10T07:42:54.097Z,14.95
2018-05-10T07:43:54.214Z,14.90
2018-05-10T07:44:54.056Z,14.94
2018-05-10T07:45:54.119Z,15.09
2018-05-10T07:46:54.015Z,15.12
2018-05-10T07:47:54.077Z,15.24
2018-05-10T07:48:53.969Z,15.41
2018-05-10T07:49:54.045Z,15.41
2018-05-10T07:50:53.929Z,15.45
2018-05-10T07:51:54.002Z,15.43
2018-05-10T07:52:53.908Z,15.42
2018-05-10T07:53:53.971Z,15.28
2018-05-10T07:54:53.846Z,15.46
2018-05-10T07:55:53.821Z,15.39
2018-05-10T07:56:53.889Z,15.43
2018-05-10T07:57:53.778Z,15.41
2018-05-10T07:58:53.907Z,15.41
2018-05-10T07:59:53.735Z,15.57
2018-05-10T08:00:53.712Z,15.74
2018-05-10T08:01:53.691Z,15.88
2018-05-10T08:02:53.830Z,16.01
2018-05-10T08:03:53.650Z,16.07
2018-05-10T08:04:53.741Z,16.18
2018-05-10T08:05:53.606Z,16.12
2018-05-10T08:06:53.757Z,16.27
2018-05-10T08:07:53.559Z,16.31
2018-05-10T08:08:53.667Z,16.31
2018-05-10T08:09:53.519Z,16.20
2018-05-10T08:10:53.685Z,16.14
2018-05-10T08:11:53.477Z,16.11
2018-05-10T08:12:53.594Z,16.22
2018-05-10T08:13:53.433Z,16.30
2018-05-10T08:14:53.503Z,16.27
2018-05-10T08:15:53.392Z,16.41
2018-05-10T08:16:53.521Z,16.55
2018-05-10T08:17:53.351Z,16.38
2018-05-10T08:18:53.433Z,16.35
2018-05-10T08:19:53.303Z,16.27
2018-05-10T08:20:53.344Z,16.25
2018-05-10T08:21:53.261Z,16.11
2018-05-10T08:22:53.255Z,16.01
2018-05-10T08:23:53.221Z,15.96
2018-05-10T08:24:53.275Z,15.92
2018-05-10T08:25:53.178Z,15.82
2018-05-10T08:26:53.179Z,15.84
2018-05-10T08:27:53.135Z,15.75
2018-05-10T08:28:53.198Z,15.64
2018-05-10T08:29:53.094Z,15.48
2018-05-10T08:30:53.108Z,15.54
2018-05-10T08:31:53.050Z,15.48
2018-05-10T08:32:53.121Z,15.45
2018-05-10T08:33:53.007Z,15.42
2018-05-10T08:34:53.033Z,15.39
2018-05-10T08:35:52.967Z,15.35
2018-05-10T08:36:53.072Z,15.17
2018-05-10T08:37:52.922Z,15.23
2018-05-10T08:38:52.960Z,15.28
2018-05-10T08:39:52.872Z,15.27
2018-05-10T08:40:52.871Z,15.33
2018-05-10T08:41:52.836Z,15.39
2018-05-10T08:42:52.883Z,15.33
2018-05-10T08:43:52.799Z,15.23
2018-05-10T08:44:52.796Z,15.21
2018-05-10T08:45:52.752Z,15.11
2018-05-10T08:46:52.810Z,15.02
2018-05-10T08:47:52.704Z,14.87
2018-05-10T08:48:52.723Z,14.88
2018-05-10T08:49:52.665Z,14.91
2018-05-10T08:50:52.735Z,14.87
2018-05-10T08:51:52.647Z,14.93
2018-05-10T08:52:52.647Z,14.84
2018-05-10T08:53:52.581Z,14.72
2018-05-10T08:54:52.677Z,14.69
2018-05-10T08:55:52.532Z,14.81
2018-05-10T08:56:52.583Z,14.84
2018-05-10T08:57:52.494Z,14.91
2018-05-10T08:58:52.492Z,14.93
2018-05-10T08:59:52.473Z,15.09
2018-05-10T09:00:52.505Z,15.06
2018-05-10T09:01:52.405Z,15.09
2018-05-10T09:02:52.415Z,14.99
2018-05-10T09:03:52.364Z,15.01
2018-05-10T09:04:52.428Z,15.08
2018-05-10T09:05:52.313Z,15.01
2018-05-10T09:06:52.342Z,15.12
2018-05-10T09:07:52.273Z,15.06
2018-05-10T09:08:52.354Z,14.91
2018-05-10T09:09:52.225Z,14.98
2018-05-10T09:10:52.266Z,14.91
2018-05-10T09:11:52.187Z,14.81
2018-05-10T09:12:52.280Z,14.86
2018-05-10T09:13:52.138Z,14.93
2018-05-10T09:14:52.190Z,14.91
2018-05-10T09:15:52.110Z,14.98
2018-05-10T09:16:52.104Z,15.08
2018-05-10T09:17:52.052Z,15.03
2018-05-10T09:18:52.116Z,15.08
2018-05-10T09:19:52.010Z,15.06
2018-05-10T09:20:52.029Z,15.11
2018-05-10T09:21:51.966Z,15.36
2018-05-10T09:22:52.042Z,15.43
2018-05-10T09:23:51.918Z,15.63
2018-05-10T09:24:51.952Z,15.82
2018-05-10T09:25:51.879Z,15.96
2018-05-10T09:26:51.969Z,15.86
2018-05-10T09:27:51.838Z,16.01
2018-05-10T09:28:51.882Z,15.99
2018-05-10T09:29:51.789Z,16.00
2018-05-10T09:30:51.791Z,16.12
2018-05-10T09:31:51.840Z,16.27
2018-05-10T09:32:51.803Z,16.26
2018-05-10T09:33:51.712Z,16.25
2018-05-10T09:34:51.715Z,16.26
2018-05-10T09:35:51.661Z,16.23
2018-05-10T09:36:51.734Z,16.09
2018-05-10T09:37:51.618Z,16.12
2018-05-10T09:38:51.642Z,16.12
2018-05-10T09:39:51.575Z,16.27
2018-05-10T09:40:51.656Z,16.40
2018-05-10T09:41:51.532Z,16.45
2018-05-10T09:42:51.571Z,16.62
2018-05-10T09:43:51.492Z,16.67
2018-05-10T09:44:51.589Z,16.77
2018-05-10T09:45:51.448Z,16.83
2018-05-10T09:46:51.495Z,16.77
2018-05-10T09:47:51.402Z,16.67
2018-05-10T09:48:51.405Z,16.56
2018-05-10T09:49:51.428Z,16.55
2018-05-10T09:50:51.422Z,16.58
2018-05-10T09:51:51.316Z,16.52
2018-05-10T09:52:51.336Z,16.56
2018-05-10T09:53:51.274Z,16.41
2018-05-10T09:54:51.347Z,16.50
2018-05-10T09:55:51.240Z,16.37
2018-05-10T09:56:51.258Z,16.11
2018-05-10T09:57:51.190Z,16.01
2018-05-10T09:58:51.272Z,15.96
2018-05-10T09:59:51.162Z,15.97
2018-05-10T10:00:51.182Z,15.94
2018-05-10T10:01:51.110Z,16.04
2018-05-10T10:02:51.196Z,15.97
2018-05-10T10:03:51.064Z,15.88
2018-05-10T10:04:51.109Z,15.85
2018-05-10T10:05:51.021Z,15.61
2018-05-10T10:06:51.025Z,15.67
2018-05-10T10:07:50.981Z,15.64
2018-05-10T10:08:51.037Z,15.60
2018-05-10T10:09:50.931Z,15.63
2018-05-10T10:10:50.954Z,15.66
2018-05-10T10:11:50.897Z,15.63
2018-05-10T10:12:50.959Z,15.54
2018-05-10T10:13:50.855Z,15.43
2018-05-10T10:14:50.870Z,15.41
2018-05-10T10:15:50.809Z,15.41
2018-05-10T10:16:50.891Z,15.26
2018-05-10T10:17:50.769Z,15.21
2018-05-10T10:18:50.804Z,15.31
2018-05-10T10:19:50.721Z,15.28
2018-05-10T10:20:50.822Z,15.26
2018-05-10T10:21:50.680Z,15.46
2018-05-10T10:22:50.725Z,15.45
2018-05-10T10:23:50.640Z,15.51
2018-05-10T10:24:50.643Z,15.52
2018-05-10T10:25:50.594Z,15.54
2018-05-10T10:26:50.656Z,15.54
2018-05-10T10:27:50.549Z,15.45
2018-05-10T10:28:50.567Z,15.26
2018-05-10T10:29:50.508Z,15.26
2018-05-10T10:30:50.579Z,15.36
2018-05-10T10:31:50.461Z,15.33
2018-05-10T10:32:51.517Z,15.31
2018-05-10T10:33:50.419Z,15.27
2018-05-10T10:34:50.505Z,15.27
2018-05-10T10:35:50.389Z,15.31
2018-05-10T10:36:50.416Z,15.24
2018-05-10T10:37:50.335Z,15.11
2018-05-10T10:38:50.326Z,15.03
2018-05-10T10:39:50.287Z,15.05
2018-05-10T10:40:50.342Z,15.05
2018-05-10T10:41:50.250Z,14.95
2018-05-10T10:42:50.256Z,14.91
2018-05-10T10:43:50.209Z,14.90
2018-05-10T10:44:50.268Z,14.94
2018-05-10T10:45:50.156Z,14.98
2018-05-10T10:46:50.179Z,15.01
2018-05-10T10:47:50.111Z,14.95
2018-05-10T10:48:50.193Z,15.06
2018-05-10T10:49:50.070Z,15.13
2018-05-10T10:50:50.106Z,15.09
2018-05-10T10:51:50.028Z,15.20
2018-05-10T10:52:50.084Z,15.15
2018-05-10T10:53:50.067Z,15.19
2018-05-10T10:54:49.962Z,15.19
2018-05-10T10:55:50.038Z,15.17
2018-05-10T10:56:49.918Z,15.11
2018-05-10T10:57:49.950Z,15.11
2018-05-10T10:58:49.870Z,15.13
2018-05-10T10:59:49.962Z,15.20
2018-05-10T11:00:49.832Z,15.26
2018-05-10T11:01:49.909Z,15.30
2018-05-10T11:02:49.787Z,15.21
2018-05-10T11:03:49.790Z,15.26
2018-05-10T11:04:49.739Z,15.23
2018-05-10T11:05:49.799Z,15.20
2018-05-10T11:06:49.698Z,15.27
2018-05-10T11:07:49.711Z,15.17
2018-05-10T11:08:49.735Z,15.09
2018-05-10T11:09:49.731Z,15.11
2018-05-10T11:10:49.607Z,15.03
2018-05-10T11:11:49.637Z,15.12
2018-05-10T11:12:49.564Z,15.13
2018-05-10T11:13:49.651Z,15.15
2018-05-10T11:14:49.521Z,15.17
2018-05-10T11:15:49.564Z,15.19
2018-05-10T11:16:49.527Z,15.17
2018-05-10T11:17:51.525Z,15.12
2018-05-10T11:18:49.433Z,15.20
2018-05-10T11:19:49.491Z,15.33
2018-05-10T11:20:49.409Z,15.24
2018-05-10T11:21:49.401Z,15.26
2018-05-10T11:22:49.343Z,15.19
2018-05-10T11:23:49.421Z,15.15
2018-05-10T11:24:49.301Z,15.20
2018-05-10T11:25:49.326Z,15.27
2018-05-10T11:26:49.256Z,15.28
2018-05-10T11:27:49.344Z,15.30
2018-05-10T11:28:49.215Z,15.45
2018-05-10T11:29:49.255Z,15.45
2018-05-10T11:30:49.169Z,15.49
2018-05-10T11:31:49.166Z,15.52
2018-05-10T11:32:49.159Z,15.63
2018-05-10T11:33:49.180Z,15.63
2018-05-10T11:34:49.082Z,15.75
2018-05-10T11:35:49.091Z,15.66
2018-05-10T11:36:49.037Z,15.67
2018-05-10T11:37:49.106Z,15.66
2018-05-10T11:38:48.995Z,15.57
2018-05-10T11:39:49.018Z,15.56
2018-05-10T11:40:48.950Z,15.42
2018-05-10T11:41:49.031Z,15.49
2018-05-10T11:42:48.907Z,15.54
2018-05-10T11:43:48.944Z,15.57
2018-05-10T11:44:48.864Z,15.54
2018-05-10T11:45:48.970Z,15.68
2018-05-10T11:46:48.843Z,15.76
2018-05-10T11:47:48.883Z,15.82
2018-05-10T11:48:48.775Z,15.82
2018-05-10T11:49:48.803Z,15.85
2018-05-10T11:50:48.730Z,15.88
2018-05-10T11:51:48.823Z,15.79
2018-05-10T11:52:48.687Z,15.75
2018-05-10T11:53:48.731Z,15.66
2018-05-10T11:54:48.641Z,15.67
2018-05-10T11:55:48.638Z,15.67
2018-05-10T11:56:48.602Z,15.76
2018-05-10T11:57:48.652Z,15.84
2018-05-10T11:58:48.557Z,15.89
2018-05-10T11:59:48.563Z,15.86
2018-05-10T12:00:48.513Z,15.89
2018-05-10T12:01:48.577Z,15.88
2018-05-10T12:02:48.471Z,15.82
2018-05-10T12:03:48.493Z,15.84
2018-05-10T12:04:48.430Z,15.88
2018-05-10T12:05:48.506Z,15.88
2018-05-10T12:06:48.384Z,15.89
2018-05-10T12:07:48.424Z,15.92
2018-05-10T12:08:48.340Z,16.01
2018-05-10T12:09:48.323Z,16.03
2018-05-10T12:10:48.299Z,16.15
2018-05-10T12:11:48.466Z,16.20
2018-05-10T12:12:48.260Z,16.14
2018-05-10T12:13:48.356Z,16.22
2018-05-10T12:14:48.212Z,16.23
2018-05-10T12:15:48.189Z,16.27
2018-05-10T12:16:48.275Z,16.26
2018-05-10T12:17:48.146Z,16.26
2018-05-10T12:18:48.191Z,16.33
2018-05-10T12:19:48.101Z,16.30
2018-05-10T12:20:48.101Z,16.25
2018-05-10T12:21:48.060Z,16.23
2018-05-10T12:22:48.115Z,16.26
2018-05-10T12:23:48.020Z,16.38
2018-05-10T12:24:48.023Z,16.44
2018-05-10T12:25:47.978Z,16.52
2018-05-10T12:26:48.038Z,16.58
2018-05-10T12:27:47.932Z,16.62
2018-05-10T12:28:47.951Z,16.74
2018-05-10T12:29:47.887Z,16.86
2018-05-10T12:30:47.964Z,16.92
2018-05-10T12:31:47.846Z,16.88
2018-05-10T12:32:47.876Z,16.93
2018-05-10T12:33:47.804Z,16.96
2018-05-10T12:34:47.890Z,17.04
2018-05-10T12:35:47.760Z,17.11
2018-05-10T12:36:47.802Z,17.14
2018-05-10T12:37:47.716Z,17.13
2018-05-10T12:38:47.712Z,17.17
2018-05-10T12:39:47.673Z,17.15
2018-05-10T12:40:47.726Z,17.08
2018-05-10T12:41:47.631Z,17.17
2018-05-10T12:42:47.638Z,17.26
2018-05-10T12:43:47.608Z,17.25
2018-05-10T12:44:47.651Z,17.20
2018-05-10T12:45:47.553Z,17.18
2018-05-10T12:46:47.563Z,17.29
2018-05-10T12:47:47.507Z,17.29
2018-05-10T12:48:47.654Z,17.30
2018-05-10T12:49:47.466Z,17.25
2018-05-10T12:50:47.489Z,17.25
2018-05-10T12:51:47.425Z,17.23
2018-05-10T12:52:47.504Z,17.28
2018-05-10T12:53:47.383Z,17.23
2018-05-10T12:54:47.413Z,17.23
2018-05-10T12:55:47.356Z,17.17
2018-05-10T12:56:47.428Z,17.20
2018-05-10T12:57:47.298Z,17.25
2018-05-10T12:58:47.342Z,17.13
2018-05-10T12:59:47.254Z,17.11
2018-05-10T13:00:47.279Z,17.13
2018-05-10T13:01:47.211Z,17.08
2018-05-10T13:02:47.339Z,17.13
2018-05-10T13:03:47.171Z,17.15
2018-05-10T13:04:47.178Z,17.08
2018-05-10T13:05:47.128Z,17.03
2018-05-10T13:06:47.321Z,17.06
2018-05-10T13:07:47.092Z,17.08
2018-05-10T13:08:47.101Z,16.98
2018-05-10T13:09:47.045Z,17.14
2018-05-10T13:10:48.040Z,17.18
2018-05-10T13:11:47.003Z,17.15
2018-05-10T13:12:47.029Z,17.03
2018-05-10T13:13:46.960Z,17.08
2018-05-10T13:14:47.041Z,17.06
2018-05-10T13:15:46.920Z,17.06
2018-05-10T13:16:46.909Z,17.10
2018-05-10T13:17:46.889Z,17.04
2018-05-10T13:18:46.859Z,17.06
2018-05-10T13:19:46.836Z,17.06
2018-05-10T13:20:46.881Z,17.10
2018-05-10T13:21:46.858Z,17.11
2018-05-10T13:22:46.846Z,17.17
2018-05-10T13:23:46.754Z,17.33
2018-05-10T13:24:46.757Z,17.28
2018-05-10T13:25:46.714Z,17.36
2018-05-10T13:26:46.769Z,17.29
2018-05-10T13:27:46.669Z,17.38
2018-05-10T13:28:46.743Z,17.35
2018-05-10T13:29:46.630Z,17.41
2018-05-10T13:30:46.694Z,17.51
2018-05-10T13:31:46.584Z,17.55
2018-05-10T13:32:46.607Z,17.57
2018-05-10T13:33:46.543Z,17.74
2018-05-10T13:34:46.620Z,17.74
2018-05-10T13:35:46.499Z,17.84
2018-05-10T13:36:46.530Z,17.94
2018-05-10T13:37:46.479Z,17.95
2018-05-10T13:38:46.599Z,18.13
2018-05-10T13:39:46.414Z,18.15
2018-05-10T13:40:46.512Z,18.22
2018-05-10T13:41:46.384Z,18.36
2018-05-10T13:42:46.526Z,18.59
2018-05-10T13:43:46.341Z,18.83
2018-05-10T13:44:46.439Z,19.24
2018-05-10T13:45:46.297Z,19.57
2018-05-10T13:46:46.448Z,19.72
2018-05-10T13:47:46.256Z,19.93